Star Clipper — 9HA2513 — position and weather

sailwx.info

Track history (hours):
 
Tides and Currents Weather Stations Pressure Air Temp Water Temp Dewpoint Dewpoint Depression Visibility Wind Speed Wind Dir Waves Ship Positions

Star Clipper

Last reported at 2019-Nov-23 12:27 UTC. Time now 2019-Dec-12 07:55 UTC.
Position N 01°10' E 103°42'.
Warning: this ship's position is 18 days out of date.

Length 111 m; draft 5.8 m.

Type: Other ship. MMSI: 248786000.

Date/timePositionNaut miles runAvg speedWind from/ knotsBaromVisibWave heightAir tempDewpointWater temp
2019-Nov-23 12:27N 01°10' E 103°42'11 4.5
2019-Nov-23 09:57N 01°16' E 103°52'0 0.1
2019-Nov-23 09:27N 01°16' E 103°52'0 0.0
2019-Nov-23 06:57N 01°16' E 103°52'0 0.0
2019-Nov-23 03:57N 01°16' E 103°52'0 0.0
2019-Nov-23 03:27N 01°16' E 103°52'0 0.0
2019-Nov-23 02:51N 01°16' E 103°52'0 0.0
2019-Nov-23 01:27N 01°16' E 103°52'0 0.1
2019-Nov-23 00:27N 01°16' E 103°52'1 2.2
2019-Nov-22 23:51N 01°15' E 103°52'11 6.3
2019-Nov-22 22:09N 01°07' E 103°45'6 8.3
2019-Nov-22 21:27N 01°04' E 103°40'  
Track history (hours):
 
Tides and Currents Weather Stations Pressure Air Temp Water Temp Dewpoint Dewpoint Depression Visibility Wind Speed Wind Dir Waves Ship Positions

Star Clipper

Last reported at 2019-Nov-23 12:27 UTC. Time now 2019-Dec-12 07:55 UTC.
Position N 01°10' E 103°42'.
Warning: this ship's position is 18 days out of date.

Length 111 m; draft 5.8 m.

Type: Other ship. MMSI: 248786000.

Date/timePositionNaut miles runAvg speedWind from/ knotsBaromVisibWave heightAir tempDewpointWater temp
2019-Nov-23 12:27N 01°10' E 103°42'11 4.5
2019-Nov-23 09:57N 01°16' E 103°52'0 0.1
2019-Nov-23 09:27N 01°16' E 103°52'0 0.0
2019-Nov-23 06:57N 01°16' E 103°52'0 0.0
2019-Nov-23 03:57N 01°16' E 103°52'0 0.0
2019-Nov-23 03:27N 01°16' E 103°52'0 0.0
2019-Nov-23 02:51N 01°16' E 103°52'0 0.0
2019-Nov-23 01:27N 01°16' E 103°52'0 0.1
2019-Nov-23 00:27N 01°16' E 103°52'1 2.2
2019-Nov-22 23:51N 01°15' E 103°52'11 6.3
2019-Nov-22 22:09N 01°07' E 103°45'6 8.3
2019-Nov-22 21:27N 01°04' E 103°40'  

Dump ship's entire track history